Terminal Aerodrome Forecast
Issued by NWS Sterling, VA

Current Version | Previous Version | Text Only | Print | Product List | Glossary On
Versions: 1 2 3 4 5 6 7 8 9 10 11 12 13 14 15 16 17 18 19 20 21 22 23 24 25 26 27 28 29 30
000
FTUS41 KLWX 252341
TAFIAD
TAF
KIAD 252341Z 2600/2706 31006KT P6SM SCT050
     FM260300 01003KT P6SM FEW050
     FM261100 VRB03KT P6SM SCT025 BKN040
     FM261500 VRB03KT P6SM BKN040
     FM261700 15005KT P6SM SCT040=

USA.gov is the U.S. government's official web portal to all federal, state and local government web resources and services.